Portada
METAR-TAF:

METAR-TAF

Aeroports :

Port Stanley, Illes Malvines

latitud: 51-49S, longitud: 058-27W, altitud: 74 m

Observació

L'informe es va fer fa 57 minuts, a les 21:50 UTC
Vent 8 kt del Oest
Temperatura 1°C
Humitat 93%
Pressió 1012 hPa
Visibilitat 10 km o més
Escasses núvols a una alçada de 2300 ft

METAR: EGYP 232150Z 27008KT 9999 FEW023 01/M00 Q1012 BLU TEMPO SCT023 WHT

Hora: 19:47 (22:47 UTC)

Pronòstic

L'informe es va fer fa 3 hores i 37 minuts, a les 19:10 UTC
Pronòstic vàlid del 23 a les 21 UTC al 24 a les 15 UTC
Vent 10 kt del Oest
Visibilitat 10 km o més
Núvols disperses a una alçada de 3000 ft
Evolucionant progressivament
l' 24 a les 09 UTC al 24 a les 12 UTC
Vent 17 kt del Nord/Nord-Oest amb ràfegues de 27 kt
Probabilitat 30% :
Temporalment
l' 24 a les 10 UTC al 24 a les 15 UTC
Vent 7 kt amb direcció variable
Núvols disperses a una alçada de 700 ft

TAF: EGYP 231910Z 2321/2415 26010KT 9999 SCT030 BECMG 2409/2412 34017G27KT 520003 PROB30 TEMPO 2410/2415 VRB07KT SCT007 560003

Observacions i pronòstics meteorològics de més de 4000 aeroports (METAR i TAF).

Les estacions disponibles són els punts grocs i vermells al mapa.

Posi el ratolí al punt desitjat per veure el nom de l'estació.

Feu clic per veure les observacions i els pronòstics meteorològics.

Per canviar el mapa: feu clic els botons verds amb una creu de color negre per apropar; al botó verd amb un guió per allunyar la imatge; o en les fletxes verdes per a mapes adjacents.


METAR-TAF: